Time;durP1;ratioP1;P1;durP2;ratioP2;P2;SDS_P1;SDS_P2;PMS_P1;PMS_P2;Temp;Humidity;BMP_temperature;BMP_pressure;BME280_temperature;BME280_humidity;BME280_pressure;Samples;Min_cycle;Max_cycle;Signal;HPM_P1;HPM_P2
2021/09/06 00:01:29;;;;;;;5.65;3.97;;;;;;;10.04;58.45;101184.84;5046404;28;20049;-74
2021/09/06 00:03:56;;;;;;;9.98;4.13;;;;;;;9.98;58.15;101188.66;5045967;28;20049;-74
2021/09/06 00:06:24;;;;;;;9.00;4.45;;;;;;;9.92;58.22;101189.84;5048033;28;20053;-72
2021/09/06 00:08:51;;;;;;;5.18;3.25;;;;;;;9.89;58.41;101195.28;5045772;28;20045;-72
2021/09/06 00:11:17;;;;;;;7.32;3.58;;;;;;;9.84;58.44;101202.59;5044004;28;20365;-72
2021/09/06 00:13:44;;;;;;;6.15;3.80;;;;;;;9.83;58.67;101185.09;5047482;28;20053;-70
2021/09/06 00:16:13;;;;;;;5.50;3.70;;;;;;;9.82;58.58;101195.72;5046267;28;20053;-70
2021/09/06 00:18:40;;;;;;;6.20;3.45;;;;;;;9.80;58.66;101197.59;5045761;28;20045;-71
2021/09/06 00:21:07;;;;;;;6.15;4.15;;;;;;;9.74;58.66;101188.19;5046556;28;20768;-73
2021/09/06 00:23:35;;;;;;;7.57;4.03;;;;;;;9.71;58.69;101185.75;5045446;28;20409;-71
2021/09/06 00:26:02;;;;;;;6.65;3.40;;;;;;;9.65;58.74;101186.94;5045412;28;20056;-72
2021/09/06 00:28:29;;;;;;;7.10;3.88;;;;;;;9.60;58.75;101188.97;5046229;28;20054;-71
2021/09/06 00:30:56;;;;;;;6.20;3.22;;;;;;;9.56;58.68;101187.41;5045529;28;20060;-72
2021/09/06 00:33:24;;;;;;;6.60;2.83;;;;;;;9.48;58.86;101189.59;5045537;28;20453;-70
2021/09/06 00:35:51;;;;;;;6.90;3.17;;;;;;;9.44;58.84;101186.28;5046698;28;20469;-72
2021/09/06 00:38:19;;;;;;;7.88;3.78;;;;;;;9.38;59.12;101195.38;5045852;28;20529;-70
2021/09/06 00:40:47;;;;;;;8.25;3.67;;;;;;;9.33;59.19;101192.13;5044668;28;20044;-73
2021/09/06 00:43:15;;;;;;;7.97;3.58;;;;;;;9.28;59.19;101194.13;5044362;28;20044;-71
2021/09/06 00:45:42;;;;;;;8.32;3.65;;;;;;;9.26;59.36;101203.91;5045792;28;20080;-70
2021/09/06 00:48:09;;;;;;;4.15;2.53;;;;;;;9.22;59.48;101199.75;5045971;28;20445;-73
2021/09/06 00:50:38;;;;;;;7.40;4.47;;;;;;;9.20;59.68;101204.25;5046094;28;20624;-73
2021/09/06 00:53:05;;;;;;;8.48;3.65;;;;;;;9.18;59.67;101198.16;5044558;28;20048;-70
2021/09/06 00:55:32;;;;;;;7.35;4.05;;;;;;;9.16;59.79;101205.31;5045871;28;20080;-73
2021/09/06 00:57:59;;;;;;;7.43;4.15;;;;;;;9.16;59.79;101213.22;5046675;28;20044;-71
2021/09/06 01:00:27;;;;;;;7.45;3.95;;;;;;;9.15;59.85;101209.75;5045730;28;20049;-73
2021/09/06 01:02:54;;;;;;;5.47;3.55;;;;;;;9.15;59.91;101206.25;5045547;28;20044;-70
2021/09/06 01:05:22;;;;;;;7.68;3.67;;;;;;;9.13;59.89;101200.22;5046341;28;20059;-70
2021/09/06 01:07:50;;;;;;;7.82;3.95;;;;;;;9.09;59.87;101201.28;5047603;28;20041;-70
2021/09/06 01:10:17;;;;;;;5.80;3.33;;;;;;;9.02;59.79;101200.75;5046402;28;20049;-71
2021/09/06 01:12:44;;;;;;;8.18;4.47;;;;;;;8.96;60.11;101204.53;5043310;28;20056;-73
2021/09/06 01:15:12;;;;;;;6.43;3.80;;;;;;;8.94;60.19;101200.28;5044823;28;20051;-73
2021/09/06 01:17:39;;;;;;;9.65;4.35;;;;;;;8.91;60.25;101203.94;5047379;28;20093;-72
2021/09/06 01:20:08;;;;;;;10.15;3.78;;;;;;;8.87;59.74;101199.72;5046854;28;20440;-72
2021/09/06 01:22:35;;;;;;;8.55;3.25;;;;;;;8.84;60.12;101201.66;5045665;28;20049;-70
2021/09/06 01:25:05;;;;;;;6.53;4.22;;;;;;;8.79;60.13;101196.66;5047417;28;20051;-72
2021/09/06 01:27:33;;;;;;;7.13;3.35;;;;;;;8.76;60.23;101192.38;5047349;28;20056;-71
2021/09/06 01:30:00;;;;;;;5.18;3.40;;;;;;;8.71;60.15;101191.75;5046630;28;20132;-72
2021/09/06 01:32:27;;;;;;;9.57;3.85;;;;;;;8.67;60.22;101198.09;5047567;28;20041;-72
2021/09/06 01:34:54;;;;;;;9.40;4.68;;;;;;;8.63;60.35;101195.72;5046677;28;20044;-71
2021/09/06 01:37:21;;;;;;;6.65;3.70;;;;;;;8.61;60.32;101187.88;5046335;28;20062;-70
2021/09/06 01:39:48;;;;;;;6.13;3.58;;;;;;;8.59;60.45;101197.63;5047210;28;20048;-71
2021/09/06 01:42:15;;;;;;;9.32;3.50;;;;;;;8.58;60.49;101191.50;5045808;28;20056;-71
2021/09/06 01:44:43;;;;;;;5.82;3.20;;;;;;;8.57;60.54;101197.72;5046021;28;20049;-71
2021/09/06 01:47:10;;;;;;;9.43;4.78;;;;;;;8.54;60.63;101187.31;5047588;28;20049;-71
2021/09/06 01:49:37;;;;;;;7.68;3.88;;;;;;;8.51;60.79;101195.34;5047459;28;20045;-74
2021/09/06 01:52:04;;;;;;;6.20;3.53;;;;;;;8.51;60.76;101192.72;5045447;28;20041;-70
2021/09/06 01:54:31;;;;;;;6.63;3.75;;;;;;;8.48;60.63;101195.53;5046191;28;20107;-70
2021/09/06 01:56:58;;;;;;;6.22;3.72;;;;;;;8.45;60.75;101193.03;5046091;28;20056;-73
2021/09/06 01:59:25;;;;;;;7.88;3.67;;;;;;;8.45;60.95;101200.94;5046992;28;20665;-72
2021/09/06 02:01:53;;;;;;;8.75;3.90;;;;;;;8.46;61.16;101191.25;5046489;28;20049;-72
2021/09/06 02:04:20;;;;;;;5.13;3.60;;;;;;;8.47;61.19;101188.53;5048877;28;20053;-70
2021/09/06 02:06:47;;;;;;;5.30;3.45;;;;;;;8.48;61.34;101195.53;5049926;28;20551;-70
2021/09/06 02:09:14;;;;;;;6.22;3.67;;;;;;;8.53;61.09;101200.56;5050450;28;20511;-74
2021/09/06 02:11:41;;;;;;;4.55;3.10;;;;;;;8.52;60.96;101197.06;5048908;28;20049;-71
2021/09/06 02:14:08;;;;;;;11.88;3.50;;;;;;;8.50;61.18;101200.69;5049674;28;20076;-71
2021/09/06 02:16:35;;;;;;;7.80;3.20;;;;;;;8.49;61.15;101205.13;5048971;28;20493;-71
2021/09/06 02:19:03;;;;;;;5.00;3.20;;;;;;;8.51;61.23;101203.25;5049190;28;20055;-69
2021/09/06 02:21:30;;;;;;;8.55;4.25;;;;;;;8.52;61.25;101204.13;5049090;28;20045;-72
2021/09/06 02:24:01;;;;;;;5.65;3.58;;;;;;;8.52;61.26;101196.22;5048463;28;20073;-71
2021/09/06 02:26:28;;;;;;;7.70;3.65;;;;;;;8.54;61.28;101199.63;5048778;28;20504;-71
2021/09/06 02:28:55;;;;;;;6.63;3.53;;;;;;;8.55;61.36;101198.69;5049570;28;20049;-69
2021/09/06 02:31:22;;;;;;;5.43;3.03;;;;;;;8.56;61.33;101200.41;5050316;28;20044;-71
2021/09/06 02:33:49;;;;;;;9.15;3.55;;;;;;;8.54;61.46;101192.59;5048820;28;20045;-71
2021/09/06 02:36:19;;;;;;;9.00;3.45;;;;;;;8.54;61.26;101205.75;5046783;28;20049;-72
2021/09/06 02:38:46;;;;;;;7.30;3.65;;;;;;;8.55;61.49;101203.97;5047119;28;20080;-70
2021/09/06 02:41:13;;;;;;;10.05;4.55;;;;;;;8.55;61.49;101199.56;5050265;28;20056;-70
2021/09/06 02:43:41;;;;;;;6.35;4.03;;;;;;;8.55;61.41;101202.19;5049078;28;20056;-70
2021/09/06 02:46:10;;;;;;;7.32;3.75;;;;;;;8.55;61.39;101199.56;5048361;28;20053;-73
2021/09/06 02:48:39;;;;;;;7.35;3.55;;;;;;;8.56;61.55;101201.25;5028827;28;20049;-70
2021/09/06 02:51:06;;;;;;;7.00;3.90;;;;;;;8.59;61.49;101195.84;5048221;28;20048;-73
2021/09/06 02:53:35;;;;;;;6.82;3.67;;;;;;;8.61;61.55;101196.63;5053512;28;20049;-72
2021/09/06 02:56:02;;;;;;;5.45;3.65;;;;;;;8.59;61.66;101185.31;5059916;28;20045;-70
2021/09/06 02:58:30;;;;;;;6.57;3.40;;;;;;;8.61;61.66;101199.25;5058582;28;20047;-73
2021/09/06 03:00:57;;;;;;;6.10;3.90;;;;;;;8.59;61.55;101197.63;5056546;28;20059;-70
2021/09/06 03:03:24;;;;;;;7.57;4.20;;;;;;;8.57;61.52;101196.84;5055837;28;20044;-70
2021/09/06 03:05:51;;;;;;;9.27;4.35;;;;;;;8.54;61.56;101191.75;5056610;28;20065;-71
2021/09/06 03:08:18;;;;;;;9.23;6.05;;;;;;;8.53;61.62;101190.88;5055323;28;20049;-71
2021/09/06 03:10:47;;;;;;;12.10;4.95;;;;;;;8.53;61.56;101190.88;5057569;28;20268;-70
2021/09/06 03:13:14;;;;;;;7.00;4.22;;;;;;;8.50;61.62;101188.41;5048165;28;20045;-74
2021/09/06 03:15:41;;;;;;;7.90;5.00;;;;;;;8.49;61.62;101186.69;5047374;28;20049;-71
2021/09/06 03:18:09;;;;;;;7.45;5.38;;;;;;;8.50;61.53;101192.78;5047332;28;20056;-71
2021/09/06 03:20:36;;;;;;;10.48;6.78;;;;;;;8.50;61.63;101185.78;5053846;28;20059;-70
2021/09/06 03:23:03;;;;;;;13.50;5.40;;;;;;;8.49;61.66;101178.78;5060480;28;20057;-68
2021/09/06 03:25:30;;;;;;;7.80;4.65;;;;;;;8.51;61.69;101181.34;5051549;28;20056;-72
2021/09/06 03:27:58;;;;;;;6.72;4.43;;;;;;;8.51;61.62;101176.94;5047603;28;20109;-69
2021/09/06 03:30:25;;;;;;;12.45;4.28;;;;;;;8.48;61.53;101171.84;5056923;28;20188;-71
2021/09/06 03:32:53;;;;;;;8.40;4.20;;;;;;;8.47;61.66;101174.53;5048490;28;20087;-71
2021/09/06 03:35:20;;;;;;;7.60;4.10;;;;;;;8.46;61.69;101178.09;5012686;28;20615;-69
2021/09/06 03:37:47;;;;;;;11.10;4.43;;;;;;;8.44;61.61;101178.16;5050604;28;20057;-71
2021/09/06 03:40:15;;;;;;;6.85;4.65;;;;;;;8.44;61.75;101174.69;5050450;28;20093;-68
2021/09/06 03:42:42;;;;;;;10.02;4.25;;;;;;;8.44;61.80;101174.69;5044836;28;20083;-71
2021/09/06 03:45:12;;;;;;;13.77;6.38;;;;;;;8.46;61.89;101170.19;5046154;28;20071;-69
2021/09/06 03:47:39;;;;;;;12.90;7.35;;;;;;;8.46;61.95;101175.44;5046484;28;20106;-70
2021/09/06 03:50:07;;;;;;;13.73;7.38;;;;;;;8.48;62.02;101165.69;5045824;28;20045;-69
2021/09/06 03:52:33;;;;;;;15.23;6.72;;;;;;;8.50;61.95;101177.88;5052234;28;20049;-69
2021/09/06 03:55:00;;;;;;;13.90;6.35;;;;;;;8.52;62.00;101175.16;5047736;28;20044;-70
2021/09/06 03:57:27;;;;;;;12.95;7.57;;;;;;;8.51;62.09;101171.66;5046836;28;20060;-72
2021/09/06 03:59:54;;;;;;;13.10;7.07;;;;;;;8.53;62.05;101175.06;5046037;28;20053;-71
2021/09/06 04:02:23;;;;;;;16.40;8.13;;;;;;;8.57;62.02;101174.00;5046492;28;20111;-71
2021/09/06 04:04:50;;;;;;;14.73;7.70;;;;;;;8.59;62.06;101172.16;5046518;28;20065;-71
2021/09/06 04:07:17;;;;;;;12.30;7.28;;;;;;;8.63;62.08;101172.84;5046840;28;20126;-71
2021/09/06 04:09:44;;;;;;;11.15;6.82;;;;;;;8.66;62.09;101177.09;5046122;28;20075;-72
2021/09/06 04:12:11;;;;;;;8.35;5.82;;;;;;;8.71;62.06;101172.47;5046198;28;20094;-72
2021/09/06 04:14:38;;;;;;;10.32;4.80;;;;;;;8.83;61.89;101174.47;5045329;28;20061;-72
2021/09/06 04:17:06;;;;;;;9.88;4.22;;;;;;;8.99;61.70;101178.03;5046417;28;20048;-72
2021/09/06 04:19:35;;;;;;;9.45;4.70;;;;;;;9.13;61.57;101172.06;5046336;28;20045;-69
2021/09/06 04:22:03;;;;;;;6.40;3.80;;;;;;;9.20;61.25;101172.63;5045421;28;20045;-72
2021/09/06 04:24:30;;;;;;;7.53;3.65;;;;;;;9.26;60.92;101174.06;5046293;28;20051;-74
2021/09/06 04:26:57;;;;;;;8.13;3.95;;;;;;;9.39;60.86;101169.84;5045075;28;20688;-72
2021/09/06 04:29:25;;;;;;;8.88;4.13;;;;;;;9.75;60.46;101179.34;5045868;28;20083;-77
2021/09/06 04:31:52;;;;;;;28.17;20.20;;;;;;;10.34;59.67;101177.03;5046443;28;20048;-73
2021/09/06 04:34:19;;;;;;;8.07;4.60;;;;;;;10.93;58.51;101176.28;5048675;28;20071;-72
2021/09/06 04:36:47;;;;;;;6.95;3.95;;;;;;;11.50;57.47;101176.34;5044112;28;20049;-73
2021/09/06 04:39:14;;;;;;;9.15;3.80;;;;;;;12.02;56.26;101183.69;5044784;28;20385;-72
2021/09/06 04:41:41;;;;;;;5.97;4.47;;;;;;;12.53;55.48;101192.81;5043981;28;20485;-69
2021/09/06 04:44:08;;;;;;;7.07;3.67;;;;;;;12.98;54.67;101196.00;5046440;28;20056;-75
2021/09/06 04:46:35;;;;;;;7.03;4.25;;;;;;;13.38;53.93;101199.47;5046210;28;20056;-74
2021/09/06 04:49:02;;;;;;;8.43;4.82;;;;;;;13.79;53.05;101199.31;5046017;28;20053;-72
2021/09/06 04:51:29;;;;;;;10.38;4.93;;;;;;;14.20;52.14;101193.69;5045826;28;20102;-73
2021/09/06 04:53:57;;;;;;;9.00;4.68;;;;;;;14.60;51.49;101185.47;5048445;28;20075;-76
2021/09/06 04:56:25;;;;;;;7.80;4.00;;;;;;;14.95;50.68;101189.09;5046845;28;20110;-76
2021/09/06 04:58:52;;;;;;;7.00;3.70;;;;;;;15.29;49.94;101187.38;5045262;28;20051;-76
2021/09/06 05:01:19;;;;;;;9.40;3.80;;;;;;;15.61;49.32;101186.63;5046434;28;20413;-77
2021/09/06 05:03:46;;;;;;;14.73;5.38;;;;;;;15.84;48.56;101177.69;5045981;28;20071;-81
2021/09/06 05:06:13;;;;;;;32.15;10.27;;;;;;;16.02;47.97;101190.53;5048984;28;20053;-78
2021/09/06 05:08:41;;;;;;;15.25;7.28;;;;;;;16.15;47.86;101185.91;5055482;28;20029;-82
2021/09/06 05:11:10;;;;;;;10.13;4.53;;;;;;;16.16;47.60;101184.09;5053795;28;20605;-76
2021/09/06 05:13:38;;;;;;;8.23;4.10;;;;;;;15.98;47.46;101189.09;5046764;28;20076;-79
2021/09/06 05:16:05;;;;;;;13.98;5.47;;;;;;;15.68;47.93;101187.84;5048333;28;20132;-79
2021/09/06 05:18:32;;;;;;;11.07;4.78;;;;;;;15.28;48.52;101193.63;5047745;28;20052;-81
2021/09/06 05:20:59;;;;;;;13.20;4.93;;;;;;;14.82;49.55;101189.16;5047493;28;20053;-75
2021/09/06 05:23:26;;;;;;;12.02;5.18;;;;;;;14.42;50.23;101187.66;5048008;28;20056;-77
2021/09/06 05:25:54;;;;;;;19.77;5.63;;;;;;;14.04;50.96;101193.94;5050213;28;20055;-75
2021/09/06 05:28:23;;;;;;;13.80;4.65;;;;;;;13.72;51.46;101196.25;5050807;28;20104;-76
2021/09/06 05:30:50;;;;;;;10.23;5.70;;;;;;;13.48;52.00;101194.34;5047479;28;20053;-74
2021/09/06 05:33:16;;;;;;;9.90;4.32;;;;;;;13.25;52.46;101195.06;5045698;28;20046;-76
2021/09/06 05:35:43;;;;;;;10.13;5.05;;;;;;;13.07;52.88;101195.41;5046760;28;20053;-75
2021/09/06 05:38:12;;;;;;;6.85;4.10;;;;;;;12.96;53.23;101190.81;5047488;28;20508;-77
2021/09/06 05:40:39;;;;;;;10.27;5.45;;;;;;;12.86;53.68;101192.38;5048995;28;20626;-74
2021/09/06 05:43:06;;;;;;;8.77;4.70;;;;;;;12.79;53.92;101193.75;5048710;28;20057;-74
2021/09/06 05:45:35;;;;;;;7.93;5.15;;;;;;;12.73;54.13;101202.09;5050297;28;20041;-76
2021/09/06 05:48:02;;;;;;;9.23;5.25;;;;;;;12.74;54.07;101195.84;5047887;28;20045;-73
2021/09/06 05:50:31;;;;;;;9.27;4.57;;;;;;;12.73;54.20;101200.31;5048638;28;20055;-75
2021/09/06 05:52:58;;;;;;;6.97;3.75;;;;;;;12.75;53.89;101203.69;5049868;28;20045;-76
2021/09/06 05:55:25;;;;;;;7.30;4.07;;;;;;;12.75;53.80;101203.69;5051941;28;20045;-76
2021/09/06 05:57:52;;;;;;;4.85;2.83;;;;;;;12.80;53.80;101206.91;5050728;28;20049;-76
2021/09/06 06:00:19;;;;;;;5.93;3.00;;;;;;;12.84;53.71;101204.91;5056764;28;20075;-76
2021/09/06 06:02:48;;;;;;;7.68;3.70;;;;;;;12.86;54.16;101200.34;5056495;28;20051;-76
2021/09/06 06:05:16;;;;;;;4.70;2.63;;;;;;;12.93;53.78;101206.94;5048739;28;20064;-79
2021/09/06 06:07:43;;;;;;;4.75;3.28;;;;;;;13.00;53.56;101204.72;5048647;28;20041;-77
2021/09/06 06:10:11;;;;;;;5.60;2.70;;;;;;;13.05;53.64;101209.69;5051541;28;20055;-78
2021/09/06 06:12:39;;;;;;;5.60;3.53;;;;;;;13.09;53.58;101208.53;5049920;28;20045;-77
2021/09/06 06:15:06;;;;;;;5.68;2.60;;;;;;;13.16;53.83;101209.81;5050620;28;20049;-77
2021/09/06 06:17:33;;;;;;;8.77;3.03;;;;;;;13.29;53.71;101207.16;5049721;28;20147;-75
2021/09/06 06:20:02;;;;;;;8.60;3.40;;;;;;;13.40;53.66;101209.97;5050066;28;20220;-76
2021/09/06 06:22:29;;;;;;;8.05;3.10;;;;;;;13.50;53.70;101215.50;5048963;28;20109;-78
2021/09/06 06:24:57;;;;;;;5.63;3.08;;;;;;;13.59;53.56;101217.50;5050018;28;20049;-76
2021/09/06 06:27:25;;;;;;;5.95;2.60;;;;;;;13.70;53.48;101214.09;5049236;28;20053;-77
2021/09/06 06:29:53;;;;;;;5.38;3.08;;;;;;;13.76;53.46;101222.47;5048410;28;20464;-77
2021/09/06 06:32:20;;;;;;;8.73;4.88;;;;;;;13.88;53.44;101215.47;5049706;28;20044;-76
2021/09/06 06:34:48;;;;;;;5.13;2.95;;;;;;;13.98;53.57;101209.50;5059014;28;20105;-77
2021/09/06 06:37:16;;;;;;;4.93;2.67;;;;;;;14.10;53.43;101222.75;5059684;28;20067;-78
2021/09/06 06:39:43;;;;;;;6.60;3.67;;;;;;;14.21;53.12;101215.81;5061167;28;20479;-77
2021/09/06 06:42:10;;;;;;;6.68;2.72;;;;;;;14.32;53.41;101208.75;5058215;28;20052;-77
2021/09/06 06:44:39;;;;;;;6.13;3.45;;;;;;;14.41;53.42;101220.50;5051444;28;20501;-68
2021/09/06 06:47:07;;;;;;;4.53;2.17;;;;;;;14.56;52.96;101223.00;5046044;28;20144;-70
2021/09/06 06:49:34;;;;;;;4.22;2.08;;;;;;;14.65;52.77;101225.84;5043754;28;20052;-70
2021/09/06 06:52:00;;;;;;;5.72;2.55;;;;;;;14.74;52.80;101221.66;5042861;28;20059;-69
2021/09/06 06:54:29;;;;;;;3.17;2.10;;;;;;;14.87;52.37;101217.13;5045792;28;20056;-71
2021/09/06 06:56:56;;;;;;;5.55;2.63;;;;;;;15.04;52.28;101217.66;5044636;28;20485;-69
2021/09/06 06:59:23;;;;;;;7.75;2.85;;;;;;;15.17;52.13;101217.56;5044846;28;20052;-70
2021/09/06 07:01:50;;;;;;;3.42;2.50;;;;;;;15.26;52.35;101225.69;5045920;28;20056;-70
2021/09/06 07:04:20;;;;;;;6.93;3.33;;;;;;;15.38;52.33;101229.22;5044175;28;20049;-71
2021/09/06 07:06:47;;;;;;;4.53;2.63;;;;;;;15.51;52.00;101229.13;5044794;28;20060;-69
2021/09/06 07:09:13;;;;;;;4.28;2.97;;;;;;;15.64;52.08;101237.84;5046179;28;20049;-69
2021/09/06 07:11:42;;;;;;;3.75;2.20;;;;;;;15.76;51.68;101244.06;5043238;28;20059;-70
2021/09/06 07:14:09;;;;;;;4.70;2.80;;;;;;;15.85;51.40;101243.34;5044116;28;20072;-70
2021/09/06 07:16:35;;;;;;;3.30;2.13;;;;;;;16.01;51.06;101247.47;5045787;28;20397;-69
2021/09/06 07:19:02;;;;;;;6.65;3.60;;;;;;;16.15;50.87;101241.88;5046364;28;20060;-70
2021/09/06 07:21:29;;;;;;;5.35;1.90;;;;;;;16.29;50.31;101245.22;5044564;28;20060;-70
2021/09/06 07:23:56;;;;;;;3.45;2.80;;;;;;;16.38;49.96;101250.66;5043920;28;20095;-69
2021/09/06 07:26:23;;;;;;;6.90;2.17;;;;;;;16.52;49.82;101244.22;5043906;28;20144;-69
2021/09/06 07:28:52;;;;;;;4.68;2.28;;;;;;;16.71;48.89;101240.00;5043728;28;20045;-70
2021/09/06 07:31:19;;;;;;;4.53;2.40;;;;;;;16.82;48.43;101243.50;5045001;28;20128;-73
2021/09/06 07:33:46;;;;;;;3.85;1.95;;;;;;;16.98;47.98;101248.44;5043234;28;20048;-68
2021/09/06 07:36:13;;;;;;;4.00;1.83;;;;;;;17.18;47.51;101237.91;5044546;28;20045;-71
2021/09/06 07:38:40;;;;;;;3.78;1.58;;;;;;;17.41;46.53;101243.09;5042824;28;20052;-70
2021/09/06 07:41:06;;;;;;;3.65;2.13;;;;;;;17.67;46.08;101240.84;5042667;28;20052;-70
2021/09/06 07:43:33;;;;;;;6.78;2.22;;;;;;;17.77;45.73;101239.94;5039998;28;20393;-69
2021/09/06 07:46:02;;;;;;;4.90;1.85;;;;;;;17.89;45.08;101240.69;5044334;28;20646;-68
2021/09/06 07:48:28;;;;;;;4.00;1.60;;;;;;;17.99;44.38;101234.53;5040960;28;20056;-69
2021/09/06 07:50:55;;;;;;;5.32;1.67;;;;;;;18.07;43.62;101242.72;5043397;28;20049;-69
2021/09/06 07:53:23;;;;;;;2.78;1.48;;;;;;;18.17;43.62;101234.72;5044001;28;20041;-69
2021/09/06 07:55:50;;;;;;;3.85;1.77;;;;;;;18.39;43.14;101242.53;5041658;28;20080;-70
2021/09/06 07:58:17;;;;;;;2.97;2.10;;;;;;;18.71;42.78;101244.13;5042736;28;20056;-68
2021/09/06 08:00:44;;;;;;;7.18;2.75;;;;;;;18.80;42.63;101232.59;5042805;28;20053;-69
2021/09/06 08:03:12;;;;;;;4.32;3.20;;;;;;;18.89;42.42;101231.75;5041480;28;20048;-71
2021/09/06 08:05:39;;;;;;;2.10;1.20;;;;;;;19.12;41.01;101234.13;5042063;28;20045;-70
2021/09/06 08:08:06;;;;;;;4.95;2.25;;;;;;;19.18;40.29;101238.91;5042501;28;20485;-71
2021/09/06 08:10:33;;;;;;;5.90;2.33;;;;;;;19.24;40.04;101241.00;5040382;28;20049;-70
2021/09/06 08:13:00;;;;;;;2.17;1.30;;;;;;;19.38;39.56;101238.88;5042142;28;20048;-70
2021/09/06 08:15:28;;;;;;;2.55;1.75;;;;;;;19.62;39.21;101233.84;5043423;28;20053;-71
2021/09/06 08:17:55;;;;;;;4.75;1.52;;;;;;;19.82;38.69;101245.38;5040529;28;20044;-69
2021/09/06 08:20:24;;;;;;;3.42;1.95;;;;;;;19.92;38.10;101239.16;5042851;28;20048;-70
2021/09/06 08:22:52;;;;;;;10.25;4.57;;;;;;;19.86;36.94;101238.75;5042324;28;20055;-67
2021/09/06 08:25:19;;;;;;;3.83;1.92;;;;;;;20.05;36.40;101237.78;5039491;28;20049;-69
2021/09/06 08:27:46;;;;;;;3.95;1.98;;;;;;;20.12;37.13;101231.84;5041737;28;20049;-70
2021/09/06 08:30:14;;;;;;;2.47;1.25;;;;;;;20.14;36.80;101233.38;5041357;28;20049;-70
2021/09/06 08:32:44;;;;;;;8.68;4.20;;;;;;;20.16;37.29;101241.28;5039509;28;20497;-69
2021/09/06 08:35:12;;;;;;;1.08;0.60;;;;;;;20.22;36.73;101240.66;5042459;28;20435;-70
2021/09/06 08:37:41;;;;;;;3.00;1.15;;;;;;;20.28;36.04;101240.09;5040158;28;20485;-69
2021/09/06 08:40:11;;;;;;;0.77;0.63;;;;;;;20.52;35.37;101241.34;5039879;28;20493;-70
2021/09/06 08:42:39;;;;;;;2.42;1.75;;;;;;;20.54;34.74;101240.19;5040115;28;20053;-69
2021/09/06 08:45:08;;;;;;;7.28;4.35;;;;;;;20.50;35.40;101246.84;5040271;28;20083;-69
2021/09/06 08:47:35;;;;;;;0.75;0.47;;;;;;;20.64;34.47;101244.69;5041377;28;20056;-70
2021/09/06 08:50:08;;;;;;;0.63;0.57;;;;;;;20.74;34.61;101238.25;5041006;28;20053;-69
2021/09/06 08:52:35;;;;;;;18.52;9.45;;;;;;;20.92;34.63;101245.44;5040358;28;20044;-70
2021/09/06 08:55:05;;;;;;;2.13;0.73;;;;;;;20.85;34.25;101237.16;5040634;28;20856;-70
2021/09/06 08:57:32;;;;;;;6.35;1.95;;;;;;;20.72;34.36;101242.91;5040667;28;20041;-69
2021/09/06 09:00:03;;;;;;;9.50;4.65;;;;;;;20.79;35.02;101252.03;5041428;28;20049;-68
2021/09/06 09:02:32;;;;;;;2.25;0.77;;;;;;;20.90;34.35;101250.13;5040341;28;20049;-70
2021/09/06 09:05:00;;;;;;;1.15;1.05;;;;;;;21.09;33.92;101243.75;5040491;28;20203;-70
2021/09/06 09:07:28;;;;;;;1.98;0.90;;;;;;;21.36;33.28;101246.28;5038386;28;20604;-70
2021/09/06 09:09:55;;;;;;;1.85;0.85;;;;;;;21.15;33.26;101249.31;5039704;28;20068;-69
2021/09/06 09:12:25;;;;;;;2.17;1.00;;;;;;;20.97;32.34;101248.50;5038626;28;20056;-70
2021/09/06 09:14:54;;;;;;;0.60;0.60;;;;;;;20.73;32.34;101239.22;5039184;28;20055;-70
2021/09/06 09:17:22;;;;;;;4.70;1.45;;;;;;;20.84;32.18;101254.25;5040852;28;20048;-69
2021/09/06 09:19:50;;;;;;;1.00;0.60;;;;;;;20.93;32.63;101236.38;5038874;28;20481;-70
2021/09/06 09:22:18;;;;;;;1.40;0.82;;;;;;;20.97;33.29;101238.59;5039743;28;20064;-70
2021/09/06 09:24:56;;;;;;;2.47;1.23;;;;;;;21.45;33.45;101240.97;5041458;28;20049;-70
2021/09/06 09:27:31;;;;;;;7.05;1.77;;;;;;;21.71;32.51;101240.97;5039917;28;20052;-70
2021/09/06 09:29:58;;;;;;;1.50;0.80;;;;;;;21.79;32.24;101237.47;5040621;28;20049;-68
2021/09/06 09:32:24;;;;;;;1.77;0.93;;;;;;;21.85;31.94;101232.31;5039901;28;20045;-68
2021/09/06 09:34:51;;;;;;;1.20;0.70;;;;;;;21.53;32.28;101231.13;5039633;28;20072;-67
2021/09/06 09:37:25;;;;;;;1.45;0.65;;;;;;;21.39;32.67;101224.47;5041027;28;20726;-69
2021/09/06 09:39:55;;;;;;;0.98;0.60;;;;;;;21.57;32.04;101232.50;5041205;28;20048;-70
2021/09/06 09:42:22;;;;;;;1.92;0.70;;;;;;;21.86;31.55;101230.44;5036404;28;20052;-69
2021/09/06 09:44:51;;;;;;;1.75;1.05;;;;;;;21.84;31.43;101222.56;5039488;28;20049;-69
2021/09/06 09:47:23;;;;;;;1.77;0.70;;;;;;;21.81;31.31;101222.03;5041285;28;20052;-71
2021/09/06 09:49:51;;;;;;;1.13;0.73;;;;;;;21.50;32.30;101218.03;5039003;28;20215;-69
2021/09/06 09:52:19;;;;;;;2.30;0.93;;;;;;;21.44;32.21;101215.09;5040238;28;20397;-68
2021/09/06 09:54:47;;;;;;;1.15;0.70;;;;;;;21.35;31.84;101211.50;5040459;28;20088;-68
2021/09/06 09:57:17;;;;;;;1.08;0.70;;;;;;;21.39;32.40;101208.34;5037861;28;20045;-69
2021/09/06 09:59:44;;;;;;;2.35;1.25;;;;;;;21.48;32.17;101211.09;5040961;28;20060;-68
2021/09/06 10:02:16;;;;;;;1.35;0.63;;;;;;;21.53;31.32;101209.63;5039188;28;20424;-71
2021/09/06 10:04:50;;;;;;;3.28;0.80;;;;;;;21.65;31.20;101206.66;5039283;28;20049;-69
2021/09/06 10:07:19;;;;;;;2.83;0.65;;;;;;;21.52;31.83;101199.88;5040484;28;20599;-68
2021/09/06 10:09:48;;;;;;;0.93;0.60;;;;;;;21.40;32.17;101203.81;5038186;28;20053;-69
2021/09/06 10:12:20;;;;;;;4.97;1.13;;;;;;;21.40;32.18;101198.44;5038146;28;20064;-69
2021/09/06 10:14:52;;;;;;;3.22;0.90;;;;;;;21.41;32.38;101201.97;5040956;28;20072;-69
2021/09/06 10:17:34;;;;;;;4.55;0.82;;;;;;;21.57;32.14;101197.56;5037799;28;20049;-69
2021/09/06 10:20:05;;;;;;;3.63;0.95;;;;;;;21.72;31.46;101203.16;5041233;28;20053;-69
2021/09/06 10:22:31;;;;;;;0.80;0.80;;;;;;;21.59;31.56;101192.03;5040955;28;20060;-68
2021/09/06 10:25:00;;;;;;;0.65;0.60;;;;;;;21.38;31.23;101195.06;5039973;28;20045;-69
2021/09/06 10:27:28;;;;;;;1.77;1.33;;;;;;;21.44;31.57;101182.84;5050696;28;20404;-69
2021/09/06 10:30:07;;;;;;;2.20;0.75;;;;;;;21.65;31.66;101191.38;5045093;28;20603;-72
2021/09/06 10:32:37;;;;;;;1.70;0.90;;;;;;;22.02;31.24;101181.25;5043136;28;20737;-68
2021/09/06 10:35:07;;;;;;;0.77;0.77;;;;;;;22.24;31.10;101182.50;5044959;28;20124;-68
2021/09/06 10:37:36;;;;;;;2.38;1.38;;;;;;;22.21;31.11;101178.28;5044718;28;20110;-69
2021/09/06 10:40:05;;;;;;;2.53;1.48;;;;;;;22.20;30.81;101173.94;5042726;28;20560;-70
2021/09/06 10:42:35;;;;;;;1.48;1.00;;;;;;;21.96;31.60;101170.13;5043591;28;20118;-69
2021/09/06 10:45:05;;;;;;;1.00;0.73;;;;;;;22.01;30.60;101176.91;5043985;28;20843;-71
2021/09/06 10:47:37;;;;;;;1.38;0.80;;;;;;;22.23;30.62;101178.94;5043438;28;20045;-70
2021/09/06 10:50:16;;;;;;;3.10;0.90;;;;;;;22.50;31.29;101172.47;5044509;28;20045;-69
2021/09/06 10:52:44;;;;;;;2.67;1.92;;;;;;;22.66;30.48;101173.50;5042551;28;20049;-70
2021/09/06 10:55:12;;;;;;;3.33;0.98;;;;;;;22.69;30.40;101167.78;5043880;28;20049;-69
2021/09/06 10:57:39;;;;;;;1.17;0.82;;;;;;;22.57;30.19;101164.56;5042796;28;20055;-70
2021/09/06 11:00:09;;;;;;;1.25;0.60;;;;;;;22.34;30.21;101172.44;5042515;28;20639;-70
2021/09/06 11:02:38;;;;;;;2.72;1.80;;;;;;;22.35;30.55;101165.25;5043670;28;20049;-71
2021/09/06 11:05:07;;;;;;;3.22;2.00;;;;;;;22.22;30.97;101176.44;5044173;28;20641;-70
2021/09/06 11:07:34;;;;;;;2.08;1.40;;;;;;;22.22;30.63;101177.28;5043778;28;20060;-71
2021/09/06 11:10:09;;;;;;;2.38;1.13;;;;;;;22.44;30.71;101169.63;5043366;28;20056;-70
2021/09/06 11:12:36;;;;;;;3.70;1.35;;;;;;;22.38;30.34;101176.47;5041047;28;20134;-70
2021/09/06 11:15:03;;;;;;;0.90;0.73;;;;;;;22.05;30.24;101170.19;5043803;28;20041;-70
2021/09/06 11:17:31;;;;;;;1.88;1.00;;;;;;;21.87;30.47;101163.06;5044406;28;20125;-70
2021/09/06 11:20:01;;;;;;;1.58;0.93;;;;;;;21.77;30.61;101170.44;5043198;28;20052;-69
2021/09/06 11:22:30;;;;;;;2.25;1.08;;;;;;;21.90;30.70;101167.28;5042733;28;20084;-67
2021/09/06 11:24:59;;;;;;;2.15;0.95;;;;;;;22.07;30.79;101163.59;5044181;28;20053;-69
2021/09/06 11:27:32;;;;;;;2.15;1.00;;;;;;;22.25;30.57;101155.41;5043333;28;20045;-70
2021/09/06 11:30:00;;;;;;;3.15;1.25;;;;;;;22.22;30.02;101166.53;5042848;28;20052;-69